FQIN

Inhambane Airport

Inhambabe, Mozambique
METAR FQIN 231100Z 09012KT 9999 BKN020 29/19 Q1012
Observed Flight Rules
Jan-23 @ 11:00 UTC (57 minutes ago) Marginal Visual Flight Rules
Wind Visibility Clouds
90° at 12 knots 10,000+ meters
  • Broken at 2,000' AGL
Temperatures Readings
Current 29°C / 84°F
Dewpoint 19°C / 66°F
Humidity 55%
Altimeter 29.88" Hg
Pressure 1012 hPa
Elevation 15
METAR FQIN 231100Z 09012KT 9999 BKN020 29/19 Q1012
Observed Flight Rules
Jan-23 @ 11:00 UTC
(57 minutes ago)
MVFR
Wind Visibility
90° at 12 knots 10,000+ meters
Clouds
  • Broken at 2,000' AGL
Temperature Dewpoint
29°C / 84°F 19°C / 66°F
Humidity Altimeter Pressure
55% 29.88" Hg 1012 hPa